createdAt,value
2018-07-08T00:00:26.917Z,96056.98
2018-07-08T00:02:56.989Z,96057.83
2018-07-08T00:05:27.216Z,96054.87
2018-07-08T00:07:57.504Z,96048.34
2018-07-08T00:10:27.658Z,96050.81
2018-07-08T00:12:57.686Z,96047.57
2018-07-08T00:15:27.760Z,96045.92
2018-07-08T00:17:57.874Z,96057.23
2018-07-08T00:20:27.962Z,96056.69
2018-07-08T00:22:57.986Z,96056.41
2018-07-08T00:25:28.124Z,96061.50
2018-07-08T00:27:58.151Z,96060.41
2018-07-08T00:30:28.240Z,96060.93
2018-07-08T00:32:58.302Z,96057.16
2018-07-08T00:35:28.412Z,96053.64
2018-07-08T00:37:58.539Z,96055.77
2018-07-08T00:40:28.666Z,96059.26
2018-07-08T00:42:58.747Z,96060.89
2018-07-08T00:45:29.376Z,96057.66
2018-07-08T00:47:59.537Z,96061.94
2018-07-08T00:50:29.670Z,96058.48
2018-07-08T00:52:59.784Z,96051.65
2018-07-08T00:55:29.913Z,96058.13
2018-07-08T00:58:00.236Z,96053.03
2018-07-08T01:00:33.118Z,96053.29
2018-07-08T01:03:05.915Z,96057.08
2018-07-08T01:05:36.057Z,96053.03
2018-07-08T01:08:06.284Z,96048.95
2018-07-08T01:10:36.375Z,96043.53
2018-07-08T01:13:06.493Z,96055.13
2018-07-08T01:15:36.106Z,96054.61
2018-07-08T01:18:06.024Z,96048.68
2018-07-08T01:20:36.188Z,96051.84
2018-07-08T01:23:06.345Z,96049.12
2018-07-08T01:25:52.984Z,96043.92
2018-07-08T01:28:23.148Z,96047.39
2018-07-08T01:30:53.759Z,96044.94
2018-07-08T01:33:23.934Z,96049.51
2018-07-08T01:35:54.004Z,96044.95
2018-07-08T01:38:24.083Z,96036.62
2018-07-08T01:40:54.140Z,96041.14
2018-07-08T01:43:24.207Z,96045.75
2018-07-08T01:45:54.211Z,96037.13
2018-07-08T01:48:24.243Z,96041.14
2018-07-08T01:50:54.314Z,96036.06
2018-07-08T01:53:25.206Z,96038.22
2018-07-08T01:55:55.418Z,96033.94
2018-07-08T01:58:25.580Z,96032.17
2018-07-08T02:00:55.669Z,96030.63
2018-07-08T02:03:25.741Z,96033.58
2018-07-08T02:05:55.368Z,96037.09
2018-07-08T02:08:25.518Z,96033.54
2018-07-08T02:10:55.569Z,96034.69
2018-07-08T02:13:25.865Z,96032.27
2018-07-08T02:15:55.943Z,96034.97
2018-07-08T02:18:25.995Z,96038.18
2018-07-08T02:20:56.020Z,96031.72
2018-07-08T02:23:26.161Z,96033.09
2018-07-08T02:25:56.263Z,96035.76
2018-07-08T02:28:26.465Z,96032.50
2018-07-08T02:30:56.202Z,96033.06
2018-07-08T02:33:26.309Z,96036.80
2018-07-08T02:35:56.434Z,96033.55
2018-07-08T02:38:26.627Z,96038.70
2018-07-08T02:40:56.864Z,96033.55
2018-07-08T02:43:27.166Z,96038.37
2018-07-08T02:45:57.826Z,96039.45
2018-07-08T02:48:28.116Z,96041.33
2018-07-08T02:50:58.236Z,96039.43
2018-07-08T02:53:28.315Z,96040.27
2018-07-08T02:55:58.377Z,96045.68
2018-07-08T02:58:28.404Z,96043.02
2018-07-08T03:00:58.478Z,96040.27
2018-07-08T03:03:28.524Z,96042.73
2018-07-08T03:05:58.530Z,96035.69
2018-07-08T03:08:28.536Z,96029.52
2018-07-08T03:10:58.103Z,96032.97
2018-07-08T03:13:28.169Z,96034.86
2018-07-08T03:15:58.265Z,96029.14
2018-07-08T03:18:28.318Z,96036.39
2018-07-08T03:20:58.448Z,96035.84
2018-07-08T03:23:28.488Z,96034.72
2018-07-08T03:25:58.555Z,96034.16
2018-07-08T03:28:28.767Z,96030.08
2018-07-08T03:30:58.758Z,96037.60
2018-07-08T03:33:28.831Z,96035.97
2018-07-08T03:35:59.410Z,96031.88
2018-07-08T03:38:29.500Z,96034.86
2018-07-08T03:40:59.500Z,96031.35
2018-07-08T03:43:29.510Z,96035.32
2018-07-08T03:45:59.528Z,96033.72
2018-07-08T03:48:29.575Z,96037.20
2018-07-08T03:50:59.153Z,96037.08
2018-07-08T03:53:29.240Z,96040.81
2018-07-08T03:55:59.298Z,96041.52
2018-07-08T03:58:29.336Z,96038.55
2018-07-08T04:00:59.510Z,96046.59
2018-07-08T04:03:29.537Z,96035.52
2018-07-08T04:05:59.579Z,96032.03
2018-07-08T04:08:29.634Z,96038.44
2018-07-08T04:10:59.653Z,96035.31
2018-07-08T04:13:29.719Z,96029.41
2018-07-08T04:16:00.027Z,96037.75
2018-07-08T04:18:30.091Z,96033.94
2018-07-08T04:21:00.168Z,96041.45
2018-07-08T04:23:30.183Z,96032.42
2018-07-08T04:26:00.033Z,96030.32
2018-07-08T04:28:31.071Z,96036.83
2018-07-08T04:31:01.168Z,96032.83
2018-07-08T04:33:31.290Z,96032.30
2018-07-08T04:36:01.340Z,96041.77
2018-07-08T04:38:31.394Z,96042.88
2018-07-08T04:41:01.446Z,96045.06
2018-07-08T04:43:31.477Z,96038.63
2018-07-08T04:46:01.510Z,96034.95
2018-07-08T04:48:31.530Z,96039.20
2018-07-08T04:51:01.562Z,96046.77
2018-07-08T04:53:31.595Z,96045.70
2018-07-08T04:56:01.746Z,96047.42
2018-07-08T04:58:31.825Z,96048.59
2018-07-08T05:01:02.182Z,96048.13
2018-07-08T05:03:32.098Z,96050.10
2018-07-08T05:06:02.274Z,96049.70
2018-07-08T05:08:31.918Z,96058.13
2018-07-08T05:11:02.120Z,96059.48
2018-07-08T05:13:32.223Z,96052.06
2018-07-08T05:16:01.895Z,96047.02
2018-07-08T05:18:31.902Z,96051.14
2018-07-08T05:21:01.977Z,96047.94
2018-07-08T05:23:31.984Z,96046.10
2018-07-08T05:26:02.035Z,96046.13
2018-07-08T05:28:31.662Z,96051.02
2018-07-08T05:31:01.698Z,96046.71
2018-07-08T05:33:31.742Z,96049.11
2018-07-08T05:36:01.844Z,96051.83
2018-07-08T05:38:31.919Z,96060.73
2018-07-08T05:41:01.728Z,96059.39
2018-07-08T05:43:31.929Z,96060.75
2018-07-08T05:46:02.075Z,96059.93
2018-07-08T05:48:32.474Z,96065.58
2018-07-08T05:51:02.675Z,96066.39
2018-07-08T05:53:32.803Z,96067.98
2018-07-08T05:56:03.031Z,96067.69
2018-07-08T05:58:33.059Z,96068.70
2018-07-08T06:01:03.143Z,96063.23
2018-07-08T06:03:32.808Z,96069.44
2018-07-08T06:06:02.925Z,96068.58
2018-07-08T06:08:32.949Z,96064.43
2018-07-08T06:11:03.019Z,96065.70
2018-07-08T06:13:32.615Z,96063.23
2018-07-08T06:16:02.689Z,96063.94
2018-07-08T06:18:32.704Z,96065.79
2018-07-08T06:21:02.763Z,96070.06
2018-07-08T06:23:32.761Z,96071.42
2018-07-08T06:26:02.953Z,96073.82
2018-07-08T06:28:32.864Z,96072.44
2018-07-08T06:31:02.937Z,96068.09
2018-07-08T06:33:32.980Z,96071.29
2018-07-08T06:36:03.031Z,96076.05
2018-07-08T06:38:33.154Z,96071.70
2018-07-08T06:41:02.850Z,96073.78
2018-07-08T06:43:32.932Z,96076.45
2018-07-08T06:46:03.056Z,96077.49
2018-07-08T06:48:33.084Z,96077.13
2018-07-08T06:51:03.255Z,96081.36
2018-07-08T06:53:33.513Z,96077.14
2018-07-08T06:56:03.730Z,96079.73
2018-07-08T06:58:34.709Z,96072.23
2018-07-08T07:01:04.855Z,96081.59
2018-07-08T07:03:34.871Z,96079.09
2018-07-08T07:06:04.971Z,96077.34
2018-07-08T07:08:35.084Z,96080.09
2018-07-08T07:11:05.208Z,96072.84
2018-07-08T07:13:35.319Z,96071.33
2018-07-08T07:16:05.610Z,96065.48
2018-07-08T07:18:35.655Z,96071.58
2018-07-08T07:21:05.938Z,96075.28
2018-07-08T07:23:36.118Z,96072.38
2018-07-08T07:26:06.439Z,96072.95
2018-07-08T07:28:36.516Z,96077.36
2018-07-08T07:31:06.648Z,96076.27
2018-07-08T07:33:36.321Z,96079.74
2018-07-08T07:36:06.480Z,96074.66
2018-07-08T07:38:36.543Z,96078.09
2018-07-08T07:41:07.028Z,96078.43
2018-07-08T07:43:37.127Z,96075.30
2018-07-08T07:46:07.606Z,96074.63
2018-07-08T07:48:37.726Z,96069.79
2018-07-08T07:51:07.414Z,96069.83
2018-07-08T07:53:37.487Z,96073.25
2018-07-08T07:56:07.781Z,96064.80
2018-07-08T07:58:37.438Z,96068.36
2018-07-08T08:01:07.951Z,96069.69
2018-07-08T08:03:38.066Z,96075.89
2018-07-08T08:06:08.112Z,96076.13
2018-07-08T08:08:38.370Z,96064.00
2018-07-08T08:11:08.547Z,96069.73
2018-07-08T08:14:04.873Z,96069.64
2018-07-08T08:16:35.007Z,96066.16
2018-07-08T08:19:05.087Z,96070.45
2018-07-08T08:21:35.131Z,96072.14
2018-07-08T08:24:05.339Z,96070.50
2018-07-08T08:26:35.468Z,96074.53
2018-07-08T08:29:05.773Z,96076.30
2018-07-08T08:31:35.404Z,96067.30
2018-07-08T08:35:13.384Z,96071.59
2018-07-08T08:37:48.629Z,96074.92
2018-07-08T08:40:19.853Z,96071.88
2018-07-08T08:42:50.031Z,96068.92
2018-07-08T08:45:21.216Z,96073.44
2018-07-08T08:47:51.365Z,96072.09
2018-07-08T08:50:21.447Z,96067.51
2018-07-08T08:52:51.612Z,96076.18
2018-07-08T08:55:21.853Z,96068.98
2018-07-08T08:57:52.002Z,96076.27
2018-07-08T09:00:22.347Z,96075.97
2018-07-08T09:02:52.607Z,96069.50
2018-07-08T09:05:23.916Z,96075.37
2018-07-08T09:07:54.036Z,96063.61
2018-07-08T09:10:24.284Z,96054.91
2018-07-08T09:12:54.486Z,96068.50
2018-07-08T09:15:24.969Z,96065.49
2018-07-08T09:17:55.073Z,96058.45
2018-07-08T09:20:25.179Z,96062.16
2018-07-08T09:22:55.405Z,96062.97
2018-07-08T09:25:25.514Z,96069.22
2018-07-08T09:27:56.006Z,96060.00
2018-07-08T09:30:26.140Z,96068.11
2018-07-08T09:32:56.255Z,96060.98
2018-07-08T09:35:26.351Z,96061.19
2018-07-08T09:37:56.870Z,96071.23
2018-07-08T09:40:26.963Z,96059.51
2018-07-08T09:42:57.143Z,96060.37
2018-07-08T09:45:27.268Z,96063.86
2018-07-08T09:47:57.353Z,96069.03
2018-07-08T09:50:27.449Z,96062.32
2018-07-08T09:52:57.552Z,96064.23
2018-07-08T09:57:56.612Z,96071.66
2018-07-08T10:00:26.652Z,96077.72
2018-07-08T10:02:56.712Z,96078.30
2018-07-08T10:05:27.508Z,96076.97
2018-07-08T10:07:58.192Z,96076.37
2018-07-08T10:10:28.742Z,96069.75
2018-07-08T10:12:58.794Z,96075.51
2018-07-08T10:15:28.888Z,96065.01
2018-07-08T10:17:58.996Z,96060.87
2018-07-08T10:20:29.069Z,96068.00
2018-07-08T10:22:58.744Z,96073.62
2018-07-08T10:25:28.838Z,96072.22
2018-07-08T10:28:12.969Z,96065.50
2018-07-08T10:30:43.508Z,96064.66
2018-07-08T10:33:13.628Z,96074.44
2018-07-08T10:35:58.775Z,96062.77
2018-07-08T10:38:28.565Z,96063.02
2018-07-08T10:40:58.749Z,96063.77
2018-07-08T10:43:28.926Z,96065.80
2018-07-08T10:45:59.263Z,96069.48
2018-07-08T10:48:29.411Z,96069.91
2018-07-08T10:51:00.544Z,96061.20
2018-07-08T10:53:30.624Z,96059.69
2018-07-08T10:56:00.763Z,96057.09
2018-07-08T10:58:30.868Z,96064.83
2018-07-08T11:01:02.206Z,96053.04
2018-07-08T11:03:32.373Z,96067.25
2018-07-08T11:06:02.506Z,96059.64
2018-07-08T11:08:33.075Z,96060.23
2018-07-08T11:11:03.207Z,96061.92
2018-07-08T11:13:33.253Z,96063.86
2018-07-08T11:16:03.342Z,96058.88
2018-07-08T11:18:33.570Z,96053.66
2018-07-08T11:21:03.631Z,96059.48
2018-07-08T11:23:33.848Z,96053.36
2018-07-08T11:26:03.971Z,96062.34
2018-07-08T11:28:34.051Z,96069.14
2018-07-08T11:31:03.743Z,96067.86
2018-07-08T11:33:33.418Z,96059.99
2018-07-08T11:36:03.600Z,96058.22
2018-07-08T11:38:33.725Z,96061.76
2018-07-08T11:41:03.887Z,96049.06
2018-07-08T11:43:34.033Z,96058.88
2018-07-08T11:46:04.244Z,96047.30
2018-07-08T11:48:34.372Z,96053.98
2018-07-08T11:51:04.493Z,96052.53
2018-07-08T11:53:34.591Z,96051.09
2018-07-08T11:56:04.738Z,96048.36
2018-07-08T11:58:34.871Z,96044.53
2018-07-08T12:01:05.006Z,96039.28
2018-07-08T12:03:35.040Z,96044.08
2018-07-08T12:06:05.111Z,96040.22
2018-07-08T12:08:35.139Z,96043.50
2018-07-08T12:11:05.217Z,96037.69
2018-07-08T12:13:35.354Z,96037.46
2018-07-08T12:16:05.804Z,96040.37
2018-07-08T12:18:35.907Z,96033.33
2018-07-08T12:21:06.095Z,96044.93
2018-07-08T12:23:40.214Z,96038.80
2018-07-08T12:26:10.055Z,96040.38
2018-07-08T12:28:40.429Z,96038.25
2018-07-08T12:31:10.571Z,96046.58
2018-07-08T12:33:40.628Z,96042.89
2018-07-08T12:36:10.783Z,96044.34
2018-07-08T12:38:40.825Z,96047.70
2018-07-08T12:41:10.980Z,96040.17
2018-07-08T12:43:40.686Z,96035.81
2018-07-08T12:46:10.818Z,96039.84
2018-07-08T12:48:40.492Z,96029.53
2018-07-08T12:51:10.653Z,96030.93
2018-07-08T12:53:40.712Z,96028.83
2018-07-08T12:56:10.818Z,96015.20
2018-07-08T12:58:41.062Z,96015.08
2018-07-08T13:01:11.092Z,96022.27
2018-07-08T13:03:41.157Z,96015.19
2018-07-08T13:06:10.854Z,96013.18
2018-07-08T13:08:40.957Z,96017.92
2018-07-08T13:11:11.092Z,96013.11
2018-07-08T13:13:41.269Z,96012.28
2018-07-08T13:16:11.348Z,96016.88
2018-07-08T13:18:41.536Z,96019.46
2018-07-08T13:21:11.647Z,96023.88
2018-07-08T13:23:41.805Z,96033.05
2018-07-08T13:26:11.913Z,96026.69
2018-07-08T13:28:41.968Z,96031.77
2018-07-08T13:31:12.068Z,96027.66
2018-07-08T13:33:42.173Z,96018.16
2018-07-08T13:36:12.274Z,96027.03
2018-07-08T13:38:42.383Z,96020.27
2018-07-08T13:41:12.031Z,96020.09
2018-07-08T13:43:42.089Z,96027.42
2018-07-08T13:46:12.103Z,96019.44
2018-07-08T13:48:42.192Z,96019.66
2018-07-08T13:51:12.194Z,96020.41
2018-07-08T13:53:42.304Z,96016.88
2018-07-08T13:56:11.954Z,96021.61
2018-07-08T13:58:41.983Z,96026.70
2018-07-08T14:01:12.089Z,96020.89
2018-07-08T14:03:42.276Z,96010.84
2018-07-08T14:06:12.408Z,96013.80
2018-07-08T14:08:42.481Z,96019.69
2018-07-08T14:11:12.530Z,96017.89
2018-07-08T14:13:42.648Z,96017.34
2018-07-08T14:16:12.720Z,96016.05
2018-07-08T14:18:42.791Z,96014.27
2018-07-08T14:21:12.851Z,96009.48
2018-07-08T14:23:42.958Z,96014.05
2018-07-08T14:26:12.595Z,96008.91
2018-07-08T14:28:42.758Z,96019.05
2018-07-08T14:31:12.893Z,96011.00
2018-07-08T14:33:42.973Z,96013.64
2018-07-08T14:36:13.020Z,96012.68
2018-07-08T14:38:43.132Z,96008.84
2018-07-08T14:41:13.210Z,96009.56
2018-07-08T14:43:43.278Z,96007.69
2018-07-08T14:46:13.351Z,96009.45
2018-07-08T14:48:43.438Z,96012.20
2018-07-08T14:51:13.524Z,96012.30
2018-07-08T14:53:43.587Z,96011.89
2018-07-08T14:56:13.644Z,96010.59
2018-07-08T14:58:43.838Z,96014.94
2018-07-08T15:01:13.865Z,96006.56
2018-07-08T15:03:43.956Z,96005.27
2018-07-08T15:06:14.028Z,95999.89
2018-07-08T15:08:43.654Z,96005.51
2018-07-08T15:11:13.736Z,96005.91
2018-07-08T15:13:43.887Z,96009.13
2018-07-08T15:16:14.017Z,96007.77
2018-07-08T15:18:43.820Z,96006.26
2018-07-08T15:21:13.948Z,95999.95
2018-07-08T15:23:44.433Z,96000.20
2018-07-08T15:26:14.583Z,96008.34
2018-07-08T15:28:44.676Z,96007.00
2018-07-08T15:31:14.846Z,96004.25
2018-07-08T15:33:45.069Z,95995.98
2018-07-08T15:36:15.245Z,95994.68
2018-07-08T15:38:45.403Z,95994.27
2018-07-08T15:41:15.484Z,95990.10
2018-07-08T15:43:45.643Z,95996.59
2018-07-08T15:46:15.711Z,95996.69
2018-07-08T15:48:45.803Z,95991.37
2018-07-08T15:51:15.524Z,95990.80
2018-07-08T15:53:46.103Z,95990.19
2018-07-08T15:56:16.607Z,95988.89
2018-07-08T16:02:15.500Z,95991.47
2018-07-08T16:04:47.895Z,95997.56
2018-07-08T16:07:18.232Z,95998.78
2018-07-08T16:09:53.936Z,95993.06
2018-07-08T16:12:24.098Z,95993.06
2018-07-08T16:20:53.773Z,95990.55
2018-07-08T16:23:23.933Z,95988.30
2018-07-08T16:25:54.240Z,95986.61
2018-07-08T16:28:24.409Z,95984.53
2018-07-08T16:30:54.671Z,95983.87
2018-07-08T16:33:24.754Z,95984.02
2018-07-08T16:35:56.698Z,95979.98
2018-07-08T16:38:26.813Z,95983.87
2018-07-08T16:40:57.475Z,95979.52
2018-07-08T16:43:27.652Z,95977.26
2018-07-08T16:45:57.336Z,95977.73
2018-07-08T16:48:28.670Z,95979.91
2018-07-08T16:50:58.774Z,95979.73
2018-07-08T16:53:29.565Z,95978.69
2018-07-08T16:55:59.689Z,95982.57
2018-07-08T16:58:29.845Z,95988.95
2018-07-08T17:00:59.959Z,95987.19
2018-07-08T17:03:30.152Z,95981.67
2018-07-08T17:06:00.334Z,95983.09
2018-07-08T17:08:30.903Z,95989.03
2018-07-08T17:11:01.257Z,95987.67
2018-07-08T17:13:30.911Z,95983.09
2018-07-08T17:16:00.992Z,95984.77
2018-07-08T17:18:31.294Z,95976.98
2018-07-08T17:21:01.451Z,95977.26
2018-07-08T17:23:31.701Z,95980.75
2018-07-08T17:26:01.794Z,95978.51
2018-07-08T17:28:31.438Z,95978.91
2018-07-08T17:31:01.659Z,95976.03
2018-07-08T17:33:32.732Z,95974.99
2018-07-08T17:36:02.853Z,95979.16
2018-07-08T17:38:32.911Z,95975.03
2018-07-08T17:41:02.677Z,95979.22
2018-07-08T17:43:32.675Z,95972.70
2018-07-08T17:46:03.107Z,95974.29
2018-07-08T17:48:33.134Z,95972.70
2018-07-08T17:51:03.262Z,95973.15
2018-07-08T17:53:33.648Z,95977.80
2018-07-08T17:56:04.352Z,95973.05
2018-07-08T17:58:34.447Z,95976.45
2018-07-08T18:01:05.825Z,95975.83
2018-07-08T18:03:38.547Z,95971.75
2018-07-08T18:06:08.774Z,95969.73
2018-07-08T18:08:39.977Z,95975.59
2018-07-08T18:11:10.194Z,95973.31
2018-07-08T18:13:40.305Z,95974.70
2018-07-08T18:16:10.350Z,95969.89
2018-07-08T18:18:40.409Z,95971.16
2018-07-08T18:21:10.548Z,95974.79
2018-07-08T18:23:40.668Z,95973.91
2018-07-08T18:26:11.051Z,95973.28
2018-07-08T18:28:41.126Z,95976.97
2018-07-08T18:31:11.211Z,95969.51
2018-07-08T18:33:41.593Z,95969.61
2018-07-08T18:36:11.718Z,95969.08
2018-07-08T18:38:41.893Z,95967.55
2018-07-08T18:41:11.952Z,95972.04
2018-07-08T18:43:42.167Z,95965.91
2018-07-08T18:46:12.315Z,95978.93
2018-07-08T18:48:42.297Z,95972.08
2018-07-08T18:51:12.430Z,95972.23
2018-07-08T18:53:42.494Z,95968.30
2018-07-08T18:56:12.581Z,95976.35
2018-07-08T18:58:42.727Z,95976.83
2018-07-08T19:01:12.878Z,95977.60
2018-07-08T19:03:43.063Z,95985.05
2018-07-08T19:06:13.178Z,95986.98
2018-07-08T19:08:43.269Z,95983.36
2018-07-08T19:11:13.432Z,95981.29
2018-07-08T19:13:43.525Z,95980.50
2018-07-08T19:16:13.614Z,95984.25
2018-07-08T19:18:43.720Z,95987.81
2018-07-08T19:21:13.810Z,95990.95
2018-07-08T19:23:44.095Z,95996.32
2018-07-08T19:26:14.268Z,95997.55
2018-07-08T19:28:44.386Z,95998.46
2018-07-08T19:31:14.022Z,96002.15
2018-07-08T19:33:44.144Z,95997.69
2018-07-08T19:36:14.246Z,96001.05
2018-07-08T19:38:44.374Z,96002.23
2018-07-08T19:41:14.483Z,96001.02
2018-07-08T19:43:44.747Z,96000.55
2018-07-08T19:46:14.802Z,96011.19
2018-07-08T19:48:45.005Z,96011.56
2018-07-08T19:51:15.108Z,96013.51
2018-07-08T19:53:45.242Z,96017.06
2018-07-08T19:56:15.410Z,96016.83
2018-07-08T19:58:45.672Z,95999.59
2018-07-08T20:01:15.733Z,96017.39
2018-07-08T20:03:45.846Z,96026.91
2018-07-08T20:06:16.576Z,96027.73
2018-07-08T20:08:46.940Z,96025.33
2018-07-08T20:11:17.023Z,96026.44
2018-07-08T20:13:47.273Z,96022.14
2018-07-08T20:16:17.416Z,96027.52
2018-07-08T20:18:47.781Z,96031.84
2018-07-08T20:21:18.086Z,96034.02
2018-07-08T20:23:48.079Z,96034.02
2018-07-08T20:26:18.206Z,96028.33
2018-07-08T20:28:48.427Z,96031.03
2018-07-08T20:31:18.511Z,96036.17
2018-07-08T20:33:48.663Z,96032.13
2018-07-08T20:36:18.745Z,96034.00
2018-07-08T20:38:49.076Z,96035.34
2018-07-08T20:41:19.169Z,96037.53
2018-07-08T20:43:49.310Z,95998.91
2018-07-08T20:46:19.009Z,96029.95
2018-07-08T20:48:48.660Z,96021.58
2018-07-08T20:51:18.776Z,96032.09
2018-07-08T20:53:48.935Z,96039.38
2018-07-08T20:56:19.102Z,96033.69
2018-07-08T20:58:49.568Z,96027.20
2018-07-08T21:01:19.788Z,96027.46
2018-07-08T21:03:50.488Z,96031.21
2018-07-08T21:06:20.579Z,96029.84
2018-07-08T21:08:50.653Z,96026.05
2018-07-08T21:11:20.774Z,96027.37
2018-07-08T21:13:51.195Z,96029.78
2018-07-08T21:16:21.396Z,96030.03
2018-07-08T21:18:51.644Z,96031.11
2018-07-08T21:21:21.806Z,96037.31
2018-07-08T21:23:51.951Z,96034.61
2018-07-08T21:26:22.070Z,96040.52
2018-07-08T21:28:52.197Z,96041.84
2018-07-08T21:31:22.400Z,96051.27
2018-07-08T21:33:52.463Z,96049.65
2018-07-08T21:36:22.618Z,96042.12
2018-07-08T21:38:52.689Z,96040.52
2018-07-08T21:41:22.844Z,96045.09
2018-07-08T21:43:52.892Z,96054.25
2018-07-08T21:46:23.088Z,96041.84
2018-07-08T21:48:52.714Z,96045.87
2018-07-08T21:51:22.823Z,96050.98
2018-07-08T21:53:53.809Z,96043.42
2018-07-08T21:56:23.956Z,96046.13
2018-07-08T21:58:54.144Z,96051.20
2018-07-08T22:01:24.769Z,96041.75
2018-07-08T22:03:54.858Z,96050.38
2018-07-08T22:06:24.978Z,96043.07
2018-07-08T22:08:55.023Z,96041.74
2018-07-08T22:11:25.139Z,96041.74
2018-07-08T22:13:55.247Z,96050.59
2018-07-08T22:16:25.445Z,96039.27
2018-07-08T22:18:55.562Z,96041.16
2018-07-08T22:21:25.721Z,96039.81
2018-07-08T22:23:55.892Z,96045.20
2018-07-08T22:26:26.002Z,96045.75
2018-07-08T22:28:56.115Z,96041.12
2018-07-08T22:31:25.801Z,96038.98
2018-07-08T22:33:55.972Z,96047.35
2018-07-08T22:36:26.109Z,96041.16
2018-07-08T22:38:56.327Z,96035.01
2018-07-08T22:41:26.477Z,96033.38
2018-07-08T22:43:56.544Z,96023.94
2018-07-08T22:46:26.670Z,96030.39
2018-07-08T22:48:56.825Z,96023.42
2018-07-08T22:51:26.952Z,96026.14
2018-07-08T22:53:57.096Z,96032.09
2018-07-08T22:56:27.838Z,96028.25
2018-07-08T22:58:57.899Z,96027.18
2018-07-08T23:01:38.455Z,96027.47
2018-07-08T23:04:08.568Z,96021.28
2018-07-08T23:06:38.655Z,96020.73
2018-07-08T23:09:08.758Z,96024.21
2018-07-08T23:11:38.885Z,96023.11
2018-07-08T23:14:08.993Z,96018.73
2018-07-08T23:16:39.049Z,96026.78
2018-07-08T23:19:09.135Z,96013.28
2018-07-08T23:21:39.261Z,96017.98
2018-07-08T23:24:09.434Z,96015.56
2018-07-08T23:26:39.624Z,96010.47
2018-07-08T23:29:09.713Z,96011.27
2018-07-08T23:31:40.234Z,96008.53
2018-07-08T23:34:10.250Z,96016.55
2018-07-08T23:36:40.343Z,96017.02
2018-07-08T23:39:10.408Z,96012.98
2018-07-08T23:41:40.603Z,96006.21
2018-07-08T23:44:10.798Z,96004.77
2018-07-08T23:46:40.874Z,96003.91
2018-07-08T23:49:10.969Z,95995.80
2018-07-08T23:51:41.129Z,95998.17
2018-07-08T23:54:11.206Z,95999.99
2018-07-08T23:56:41.375Z,96003.19
2018-07-08T23:59:11.472Z,95999.59
